Time;durP1;ratioP1;P1;durP2;ratioP2;P2;SDS_P1;SDS_P2;PMS_P1;PMS_P2;Temp;Humidity;BMP_temperature;BMP_pressure;BME280_temperature;BME280_humidity;BME280_pressure;Samples;Min_cycle;Max_cycle;Signal;HPM_P1;HPM_P2
2021/07/19 00:01:57;;;;;;;13.40;7.85;;;17.40;96.10;;;;;;5042385;28;20029;-86
2021/07/19 00:04:24;;;;;;;16.90;7.80;;;17.40;96.20;;;;;;5045586;28;20302;-86
2021/07/19 00:06:51;;;;;;;15.10;7.97;;;17.40;96.30;;;;;;5035446;28;20091;-85
2021/07/19 00:09:17;;;;;;;19.25;8.15;;;17.30;96.20;;;;;;5042512;28;20057;-87
2021/07/19 00:11:43;;;;;;;17.55;7.95;;;17.30;96.10;;;;;;5043054;28;20033;-87
2021/07/19 00:14:09;;;;;;;13.48;7.85;;;17.30;96.00;;;;;;5046413;28;20108;-87
2021/07/19 00:16:35;;;;;;;16.02;7.70;;;17.30;96.00;;;;;;5047468;28;20522;-86
2021/07/19 00:19:02;;;;;;;13.75;8.10;;;17.20;96.00;;;;;;5041034;28;20491;-87
2021/07/19 00:21:28;;;;;;;18.23;8.68;;;17.30;96.00;;;;;;5028219;28;20040;-86
2021/07/19 00:23:54;;;;;;;14.60;7.93;;;17.20;96.00;;;;;;5048713;28;20028;-87
2021/07/19 00:26:21;;;;;;;11.50;7.57;;;17.20;96.10;;;;;;5042771;28;20663;-87
2021/07/19 00:28:48;;;;;;;16.13;7.97;;;17.10;96.10;;;;;;5042669;28;20276;-86
2021/07/19 00:31:14;;;;;;;16.70;8.55;;;17.10;96.20;;;;;;5063095;28;20058;-86
2021/07/19 00:33:40;;;;;;;15.57;8.27;;;17.00;96.70;;;;;;5061101;28;20579;-87
2021/07/19 00:36:06;;;;;;;18.05;8.13;;;17.00;96.50;;;;;;5044959;28;20032;-87
2021/07/19 00:38:32;;;;;;;12.95;8.30;;;17.00;96.60;;;;;;5047144;28;20120;-87
2021/07/19 00:40:59;;;;;;;17.88;7.90;;;17.00;96.60;;;;;;5053541;28;20056;-85
2021/07/19 00:43:25;;;;;;;14.35;7.90;;;16.90;96.50;;;;;;5047974;28;20029;-87
2021/07/19 00:45:51;;;;;;;12.68;8.45;;;16.90;96.50;;;;;;5046735;28;20033;-88
2021/07/19 00:48:17;;;;;;;11.73;7.53;;;16.80;96.50;;;;;;5029199;28;20057;-87
2021/07/19 00:50:43;;;;;;;13.75;8.27;;;16.80;96.60;;;;;;5028172;28;20052;-86
2021/07/19 00:53:09;;;;;;;20.92;9.18;;;16.80;96.70;;;;;;5027333;28;20037;-85
2021/07/19 00:55:38;;;;;;;15.65;8.85;;;16.70;96.90;;;;;;5031731;28;20033;-85
2021/07/19 00:58:07;;;;;;;17.00;9.27;;;16.70;97.00;;;;;;5046091;28;20052;-86
2021/07/19 01:00:40;;;;;;;17.80;8.85;;;16.70;97.10;;;;;;5057128;28;20671;-85
2021/07/19 01:03:07;;;;;;;13.88;8.35;;;16.60;97.10;;;;;;5049346;28;20400;-85
2021/07/19 01:05:37;;;;;;;19.90;9.48;;;16.60;97.10;;;;;;5014584;28;20042;-86
2021/07/19 01:08:04;;;;;;;19.02;8.68;;;16.50;97.10;;;;;;5061546;28;20495;-86
2021/07/19 01:10:31;;;;;;;15.60;8.93;;;16.50;97.10;;;;;;5042874;28;20041;-86
2021/07/19 01:12:58;;;;;;;19.63;9.00;;;16.50;97.20;;;;;;5028226;28;20029;-85
2021/07/19 01:15:26;;;;;;;15.65;8.20;;;16.50;97.40;;;;;;5046810;28;20089;-86
2021/07/19 01:17:53;;;;;;;20.17;9.10;;;16.50;97.30;;;;;;5040832;28;20029;-85
2021/07/19 01:20:26;;;;;;;17.95;8.90;;;16.40;97.40;;;;;;5038039;28;20036;-86
2021/07/19 01:23:07;;;;;;;17.40;8.88;;;16.40;97.40;;;;;;5046273;28;20063;-84
2021/07/19 01:25:42;;;;;;;14.38;9.35;;;16.40;97.40;;;;;;5048017;28;20414;-85
2021/07/19 01:28:37;;;;;;;17.23;9.35;;;16.40;97.30;;;;;;5062950;28;20036;-87
2021/07/19 01:31:09;;;;;;;17.88;9.48;;;16.40;97.20;;;;;;5041600;28;20041;-85
2021/07/19 01:33:36;;;;;;;16.90;9.00;;;16.40;97.50;;;;;;5042266;28;20029;-86
2021/07/19 01:36:05;;;;;;;19.40;8.90;;;16.30;97.50;;;;;;5043964;28;20045;-86
2021/07/19 01:38:31;;;;;;;14.65;8.98;;;16.30;97.50;;;;;;5049194;28;20476;-85
2021/07/19 01:40:58;;;;;;;16.23;9.13;;;16.30;97.60;;;;;;5036923;28;20116;-85
2021/07/19 01:43:26;;;;;;;16.13;9.93;;;16.30;97.60;;;;;;5046270;28;20048;-86
2021/07/19 01:45:52;;;;;;;16.90;8.90;;;16.30;97.60;;;;;;5045570;28;20040;-86
2021/07/19 01:48:19;;;;;;;17.90;9.90;;;16.30;97.50;;;;;;5061659;28;20064;-86
2021/07/19 01:50:46;;;;;;;19.85;9.88;;;16.30;97.50;;;;;;5060110;28;20288;-86
2021/07/19 01:53:12;;;;;;;20.55;10.35;;;16.20;97.60;;;;;;5029512;28;20033;-85
2021/07/19 01:55:39;;;;;;;15.70;9.88;;;16.20;97.70;;;;;;4997944;28;20049;-85
2021/07/19 01:58:05;;;;;;;18.48;10.05;;;16.20;97.80;;;;;;5042752;28;20038;-85
2021/07/19 02:00:31;;;;;;;24.48;10.55;;;16.20;97.80;;;;;;5048273;28;20063;-84
2021/07/19 02:02:57;;;;;;;19.73;9.65;;;16.20;97.70;;;;;;5048833;28;20033;-84
2021/07/19 02:05:25;;;;;;;16.48;9.52;;;16.20;97.80;;;;;;5044710;28;20033;-84
2021/07/19 02:07:56;;;;;;;19.35;9.90;;;16.20;97.80;;;;;;5064222;28;20044;-85
2021/07/19 02:10:22;;;;;;;22.73;10.30;;;16.20;97.80;;;;;;5053177;28;20041;-86
2021/07/19 02:12:49;;;;;;;17.88;9.30;;;16.20;97.80;;;;;;5049118;28;20095;-89
2021/07/19 02:15:17;;;;;;;19.35;9.30;;;16.20;97.80;;;;;;5039758;28;20097;-90
2021/07/19 02:17:49;;;;;;;21.88;9.90;;;16.10;97.90;;;;;;5054897;28;20025;-90
2021/07/19 02:20:17;;;;;;;20.92;10.52;;;16.10;97.80;;;;;;5053482;28;20090;-87
2021/07/19 02:22:45;;;;;;;22.30;10.38;;;16.20;97.80;;;;;;5034584;28;20045;-85
2021/07/19 02:25:12;;;;;;;17.48;10.02;;;16.20;97.80;;;;;;5053386;28;20071;-88
2021/07/19 02:27:39;;;;;;;19.73;10.23;;;16.10;97.80;;;;;;5042977;28;20054;-85
2021/07/19 02:30:08;;;;;;;20.25;9.60;;;16.20;98.00;;;;;;5037203;28;20507;-86
2021/07/19 02:32:42;;;;;;;18.98;9.30;;;16.20;98.10;;;;;;5062978;28;20122;-86
2021/07/19 02:35:10;;;;;;;19.13;9.95;;;16.20;98.10;;;;;;5046138;28;20391;-84
2021/07/19 02:37:37;;;;;;;19.27;10.27;;;16.20;98.10;;;;;;5034735;28;20033;-85
2021/07/19 02:40:06;;;;;;;17.98;11.05;;;16.20;98.10;;;;;;5042326;28;20408;-85
2021/07/19 02:42:35;;;;;;;24.85;11.10;;;16.20;98.10;;;;;;5031624;28;20061;-86
2021/07/19 02:45:04;;;;;;;24.20;10.23;;;16.20;98.20;;;;;;5041864;28;20682;-86
2021/07/19 02:47:31;;;;;;;17.98;10.50;;;16.20;98.20;;;;;;5047303;28;20029;-87
2021/07/19 02:49:57;;;;;;;21.83;10.23;;;16.20;98.30;;;;;;5028093;28;20390;-87
2021/07/19 02:52:23;;;;;;;15.73;9.70;;;16.10;98.30;;;;;;5041683;28;20037;-87
2021/07/19 02:54:50;;;;;;;16.98;10.23;;;16.10;98.70;;;;;;5026508;28;20032;-86
2021/07/19 02:57:16;;;;;;;20.30;10.23;;;16.20;98.40;;;;;;5046801;28;20029;-87
2021/07/19 02:59:43;;;;;;;17.15;10.00;;;16.10;98.40;;;;;;5048188;28;20040;-85
2021/07/19 03:02:11;;;;;;;17.08;10.00;;;16.10;98.30;;;;;;5060890;28;20037;-86
2021/07/19 03:04:38;;;;;;;16.80;9.68;;;16.10;98.30;;;;;;5027932;28;20053;-88
2021/07/19 03:07:06;;;;;;;17.33;9.85;;;16.20;98.40;;;;;;5026155;28;20040;-88
2021/07/19 03:09:37;;;;;;;19.50;9.13;;;16.20;98.50;;;;;;5077948;28;20040;-91
2021/07/19 03:12:06;;;;;;;19.08;9.63;;;16.20;98.50;;;;;;5037095;28;20451;-85
2021/07/19 03:14:35;;;;;;;18.70;9.10;;;16.20;98.60;;;;;;5058266;28;20044;-87
2021/07/19 03:17:02;;;;;;;17.10;9.18;;;16.20;98.50;;;;;;5064329;28;20033;-86
2021/07/19 03:19:29;;;;;;;20.20;9.88;;;16.20;98.40;;;;;;5051530;28;20466;-88
2021/07/19 03:21:58;;;;;;;18.58;9.20;;;16.20;98.40;;;;;;5044922;28;20059;-86
2021/07/19 03:24:25;;;;;;;16.48;9.85;;;16.20;98.30;;;;;;5043290;28;20213;-86
2021/07/19 03:26:51;;;;;;;19.15;9.35;;;16.10;98.40;;;;;;5055096;28;20060;-85
2021/07/19 03:29:19;;;;;;;22.48;9.95;;;16.10;98.40;;;;;;5043100;28;20032;-85
2021/07/19 03:31:46;;;;;;;20.10;9.80;;;16.10;98.50;;;;;;5027399;28;20131;-87
2021/07/19 03:34:14;;;;;;;22.05;9.50;;;16.10;98.40;;;;;;5039995;28;20127;-85
2021/07/19 03:36:40;;;;;;;21.80;9.35;;;16.10;98.50;;;;;;5027294;28;20037;-85
2021/07/19 03:39:08;;;;;;;17.75;9.55;;;16.10;98.60;;;;;;5042282;28;20037;-84
2021/07/19 03:41:34;;;;;;;16.67;10.05;;;16.10;98.70;;;;;;5031417;28;20462;-85
2021/07/19 03:44:01;;;;;;;17.23;8.80;;;16.10;98.70;;;;;;5042026;28;20396;-85
2021/07/19 03:46:28;;;;;;;18.20;8.95;;;16.10;98.70;;;;;;5044318;28;20037;-85
2021/07/19 03:48:54;;;;;;;15.40;8.48;;;16.10;98.60;;;;;;5046954;28;20396;-85
2021/07/19 03:51:22;;;;;;;19.52;9.15;;;16.10;98.60;;;;;;5054651;28;20037;-85
2021/07/19 03:53:48;;;;;;;19.10;9.40;;;16.10;98.60;;;;;;5022177;28;20372;-84
2021/07/19 03:56:14;;;;;;;17.50;9.40;;;16.10;98.70;;;;;;5062662;28;20033;-85
2021/07/19 03:58:41;;;;;;;15.50;8.38;;;16.10;98.80;;;;;;5029353;28;20559;-85
2021/07/19 04:01:08;;;;;;;17.70;9.00;;;16.20;98.80;;;;;;5040981;28;20044;-85
2021/07/19 04:03:52;;;;;;;15.43;7.95;;;16.20;98.60;;;;;;5038888;28;20033;-84
2021/07/19 04:06:19;;;;;;;19.65;10.05;;;16.20;98.70;;;;;;5025484;28;20590;-85
2021/07/19 04:08:47;;;;;;;14.32;9.15;;;16.20;98.80;;;;;;5029647;28;20040;-84
2021/07/19 04:11:19;;;;;;;18.50;9.00;;;16.20;98.80;;;;;;5058701;28;20033;-86
2021/07/19 04:13:46;;;;;;;14.93;8.03;;;16.20;98.80;;;;;;5059181;28;20091;-84
2021/07/19 04:16:19;;;;;;;15.27;9.27;;;16.20;98.70;;;;;;5029375;28;20025;-85
2021/07/19 04:18:46;;;;;;;15.45;8.25;;;16.20;98.60;;;;;;5026560;28;20495;-84
2021/07/19 04:21:12;;;;;;;19.73;9.43;;;16.20;98.70;;;;;;5042119;28;20047;-85
2021/07/19 04:23:38;;;;;;;19.00;9.10;;;16.20;99.00;;;;;;5030405;28;20051;-86
2021/07/19 04:26:06;;;;;;;16.75;8.77;;;16.30;98.70;;;;;;5054949;28;20039;-84
2021/07/19 04:28:34;;;;;;;15.60;8.75;;;16.30;98.70;;;;;;5042312;28;20040;-84
2021/07/19 04:31:00;;;;;;;12.05;8.05;;;16.30;98.70;;;;;;5041173;28;20087;-85
2021/07/19 04:33:26;;;;;;;15.95;9.88;;;16.30;98.70;;;;;;5023774;28;20055;-85
2021/07/19 04:35:52;;;;;;;14.85;9.13;;;16.30;98.70;;;;;;5044493;28;20112;-85
2021/07/19 04:38:21;;;;;;;15.85;8.80;;;16.30;98.70;;;;;;5047333;28;20045;-86
2021/07/19 04:40:50;;;;;;;15.45;9.90;;;16.30;98.70;;;;;;5045266;28;20040;-85
2021/07/19 04:43:17;;;;;;;15.45;9.27;;;16.40;98.80;;;;;;5048417;28;20033;-85
2021/07/19 04:45:45;;;;;;;19.65;9.07;;;16.40;98.70;;;;;;5043546;28;20100;-86
2021/07/19 04:48:12;;;;;;;20.23;9.98;;;16.40;98.70;;;;;;5046219;28;20562;-86
2021/07/19 04:50:39;;;;;;;16.60;9.50;;;16.40;98.70;;;;;;5037853;28;20467;-84
2021/07/19 04:53:04;;;;;;;17.42;8.73;;;16.40;98.70;;;;;;5047235;28;20033;-86
2021/07/19 04:55:32;;;;;;;15.70;9.48;;;16.40;98.80;;;;;;5045257;28;20043;-83
2021/07/19 04:58:00;;;;;;;17.42;9.10;;;16.40;98.70;;;;;;5060050;28;20483;-83
2021/07/19 05:00:27;;;;;;;17.83;9.20;;;16.40;98.60;;;;;;5045437;28;20479;-85
2021/07/19 05:02:56;;;;;;;19.40;10.18;;;16.40;98.70;;;;;;5035784;28;20064;-85
2021/07/19 05:05:24;;;;;;;20.95;9.18;;;16.50;98.70;;;;;;5051160;28;20033;-86
2021/07/19 05:07:52;;;;;;;20.90;10.07;;;16.40;98.70;;;;;;5050771;28;20053;-84
2021/07/19 05:10:19;;;;;;;17.65;9.75;;;16.50;98.70;;;;;;5049514;28;20115;-86
2021/07/19 05:12:49;;;;;;;20.25;9.70;;;16.50;98.80;;;;;;5065045;28;20033;-84
2021/07/19 05:15:16;;;;;;;22.33;9.50;;;16.50;98.80;;;;;;5048277;28;20072;-84
2021/07/19 05:17:42;;;;;;;20.08;9.38;;;16.50;98.80;;;;;;5043404;28;20079;-83
2021/07/19 05:20:29;;;;;;;18.33;9.98;;;16.50;98.80;;;;;;5031446;28;20141;-86
2021/07/19 05:22:59;;;;;;;20.98;9.40;;;16.50;98.70;;;;;;5039291;28;20044;-85
2021/07/19 05:25:27;;;;;;;17.50;9.40;;;16.40;98.70;;;;;;5039650;28;20404;-85
2021/07/19 05:27:58;;;;;;;21.10;9.98;;;16.40;98.70;;;;;;5047595;28;20393;-87
2021/07/19 05:30:28;;;;;;;18.10;9.57;;;16.40;98.80;;;;;;5041620;28;20033;-84
2021/07/19 05:32:54;;;;;;;19.52;9.57;;;16.40;98.80;;;;;;5048141;28;20041;-85
2021/07/19 05:35:21;;;;;;;19.50;9.93;;;16.50;98.80;;;;;;5053286;28;20392;-83
2021/07/19 05:37:48;;;;;;;19.88;9.95;;;16.50;98.80;;;;;;5034098;28;20033;-85
2021/07/19 05:40:15;;;;;;;18.95;8.98;;;16.50;98.80;;;;;;5046393;28;20047;-85
2021/07/19 05:42:41;;;;;;;20.77;9.70;;;16.50;98.80;;;;;;5031744;28;20105;-85
2021/07/19 05:45:09;;;;;;;19.67;9.35;;;16.60;98.70;;;;;;5060936;28;20024;-87
2021/07/19 05:47:35;;;;;;;19.02;9.25;;;16.60;98.70;;;;;;5060311;28;20048;-90
2021/07/19 05:50:02;;;;;;;19.35;8.88;;;16.60;98.70;;;;;;5069687;28;20117;-84
2021/07/19 05:52:28;;;;;;;22.55;9.23;;;16.60;98.80;;;;;;5051838;28;20037;-84
2021/07/19 05:54:56;;;;;;;18.50;8.60;;;16.60;98.70;;;;;;5019522;28;20487;-84
2021/07/19 05:57:25;;;;;;;17.85;9.07;;;16.60;98.70;;;;;;5029481;28;20039;-88
2021/07/19 05:59:55;;;;;;;15.50;8.57;;;16.70;98.70;;;;;;5046262;28;20033;-84
2021/07/19 06:02:22;;;;;;;22.20;8.98;;;16.70;98.60;;;;;;5053697;28;20037;-84
2021/07/19 06:04:48;;;;;;;15.13;8.77;;;16.70;98.50;;;;;;5027057;28;20094;-87
2021/07/19 06:07:14;;;;;;;21.13;9.98;;;16.70;98.50;;;;;;5026808;28;20044;-84
2021/07/19 06:09:39;;;;;;;19.25;8.27;;;16.80;98.40;;;;;;5014210;28;20037;-83
2021/07/19 06:12:06;;;;;;;19.85;7.90;;;16.80;98.40;;;;;;5041285;28;20025;-84
2021/07/19 06:14:32;;;;;;;18.20;8.27;;;16.80;98.30;;;;;;5051196;28;20115;-85
2021/07/19 06:16:58;;;;;;;21.40;8.43;;;16.80;98.30;;;;;;5046289;28;20492;-85
2021/07/19 06:19:24;;;;;;;17.40;7.85;;;16.90;98.20;;;;;;5021553;28;20093;-85
2021/07/19 06:21:50;;;;;;;21.13;7.85;;;17.00;98.00;;;;;;5024636;28;20049;-84
2021/07/19 06:24:15;;;;;;;20.00;7.80;;;17.00;97.90;;;;;;5047769;28;20033;-85
2021/07/19 06:26:41;;;;;;;19.02;7.57;;;17.00;97.80;;;;;;5026645;28;20036;-83
2021/07/19 06:29:08;;;;;;;17.27;7.30;;;17.00;97.60;;;;;;5044708;28;20108;-84
2021/07/19 06:31:39;;;;;;;14.13;6.38;;;17.10;97.60;;;;;;5043155;28;20029;-83
2021/07/19 06:34:08;;;;;;;17.58;6.60;;;17.10;97.70;;;;;;5033903;28;20033;-83
2021/07/19 06:36:34;;;;;;;20.83;6.47;;;17.10;97.10;;;;;;5049919;28;20037;-82
2021/07/19 06:39:00;;;;;;;17.85;6.32;;;17.10;96.80;;;;;;5046549;28;20541;-85
2021/07/19 06:41:26;;;;;;;16.25;6.63;;;17.10;96.70;;;;;;5039643;28;20408;-83
2021/07/19 06:43:51;;;;;;;17.35;6.65;;;17.20;96.70;;;;;;5048000;28;20111;-84
2021/07/19 06:46:17;;;;;;;19.10;6.40;;;17.20;97.00;;;;;;5014815;28;20064;-86
2021/07/19 06:48:43;;;;;;;13.18;5.43;;;17.20;96.50;;;;;;5012270;28;20037;-86
2021/07/19 06:51:09;;;;;;;11.45;5.47;;;17.20;96.10;;;;;;5045432;28;20041;-86
2021/07/19 06:53:35;;;;;;;13.82;5.20;;;17.20;95.80;;;;;;5048451;28;20033;-85
2021/07/19 06:56:07;;;;;;;14.90;6.07;;;17.20;95.60;;;;;;5044340;28;20044;-84
2021/07/19 06:58:33;;;;;;;13.73;5.45;;;17.10;95.70;;;;;;5028455;28;20041;-84
2021/07/19 07:00:59;;;;;;;18.85;5.90;;;17.10;95.70;;;;;;5045478;28;20470;-84
2021/07/19 07:03:24;;;;;;;12.80;4.90;;;17.10;95.60;;;;;;5028674;28;20060;-84
2021/07/19 07:05:50;;;;;;;11.13;5.75;;;17.10;95.40;;;;;;5032410;28;20037;-86
2021/07/19 07:08:16;;;;;;;14.38;5.03;;;17.10;95.10;;;;;;5065517;28;20037;-88
2021/07/19 07:10:42;;;;;;;14.07;5.50;;;17.10;94.80;;;;;;5015436;28;20092;-85
2021/07/19 07:13:10;;;;;;;15.38;5.05;;;17.10;94.80;;;;;;5047822;28;20045;-84
2021/07/19 07:15:38;;;;;;;12.23;4.88;;;17.10;94.90;;;;;;5037955;28;20029;-86
2021/07/19 07:18:08;;;;;;;15.60;4.63;;;17.20;94.80;;;;;;5032601;28;20064;-86
2021/07/19 07:20:35;;;;;;;11.48;4.97;;;17.20;94.60;;;;;;5064305;28;20094;-86
2021/07/19 07:23:02;;;;;;;15.05;5.57;;;17.20;94.50;;;;;;5049356;28;20033;-88
2021/07/19 07:25:28;;;;;;;15.50;5.47;;;17.30;94.10;;;;;;5031778;28;20052;-86
2021/07/19 07:27:54;;;;;;;17.42;5.28;;;17.30;94.10;;;;;;5048108;28;20032;-85
2021/07/19 07:30:20;;;;;;;12.75;4.88;;;17.40;94.10;;;;;;5030319;28;20123;-87
2021/07/19 07:32:47;;;;;;;13.35;5.25;;;17.50;94.00;;;;;;5008637;28;20037;-86
2021/07/19 07:35:13;;;;;;;13.10;5.15;;;17.60;94.00;;;;;;5030886;28;20033;-86
2021/07/19 07:37:39;;;;;;;11.75;5.03;;;17.70;93.70;;;;;;5025689;28;20037;-86
2021/07/19 07:40:08;;;;;;;15.60;4.85;;;17.70;93.50;;;;;;5034889;28;20037;-86
2021/07/19 07:42:34;;;;;;;11.50;5.40;;;17.70;93.40;;;;;;5027703;28;20098;-86
2021/07/19 07:45:00;;;;;;;16.95;5.43;;;17.70;93.30;;;;;;5070648;28;20360;-85
2021/07/19 07:47:28;;;;;;;13.18;5.35;;;17.70;93.20;;;;;;5065040;28;20044;-88
2021/07/19 07:49:54;;;;;;;15.15;5.55;;;17.70;93.30;;;;;;5032828;28;20029;-85
2021/07/19 07:52:20;;;;;;;13.20;5.38;;;17.70;93.20;;;;;;5037630;28;20082;-84
2021/07/19 07:54:46;;;;;;;12.75;5.18;;;17.80;93.20;;;;;;5060837;28;20037;-83
2021/07/19 07:57:12;;;;;;;14.43;5.45;;;17.80;93.10;;;;;;5060094;28;20041;-86
2021/07/19 07:59:39;;;;;;;14.68;5.35;;;17.80;93.60;;;;;;5048238;28;20041;-85
2021/07/19 08:02:05;;;;;;;13.95;4.70;;;17.80;93.40;;;;;;5027728;28;20044;-86
2021/07/19 08:04:32;;;;;;;12.63;5.15;;;17.80;93.30;;;;;;5030264;28;20453;-86
2021/07/19 08:07:00;;;;;;;17.67;5.15;;;17.70;93.00;;;;;;5024148;28;20029;-88
2021/07/19 08:09:27;;;;;;;18.23;5.70;;;17.70;92.90;;;;;;5055237;28;20029;-88
2021/07/19 08:11:54;;;;;;;13.15;4.57;;;17.70;92.80;;;;;;5029795;28;20082;-87
2021/07/19 08:14:20;;;;;;;13.73;5.15;;;17.60;92.70;;;;;;5037660;28;20041;-87
2021/07/19 08:16:46;;;;;;;15.43;5.25;;;17.60;92.80;;;;;;5055784;28;20036;-87
2021/07/19 08:19:14;;;;;;;13.57;4.78;;;17.60;93.00;;;;;;5044384;28;20249;-86
2021/07/19 08:21:47;;;;;;;11.07;4.93;;;17.60;93.00;;;;;;5061121;28;20037;-87
2021/07/19 08:24:34;;;;;;;16.50;5.32;;;17.60;93.10;;;;;;5042034;28;20041;-84
2021/07/19 08:30:35;;;;;;;10.35;4.80;;;17.70;92.60;;;;;;4975282;28;20070;-85
2021/07/19 08:33:02;;;;;;;16.75;5.45;;;17.80;92.40;;;;;;4953256;28;20058;-87
2021/07/19 08:35:27;;;;;;;15.15;5.47;;;17.70;92.30;;;;;;4975882;28;20072;-86
2021/07/19 08:37:57;;;;;;;11.98;5.40;;;17.80;92.30;;;;;;5032125;28;20075;-87
2021/07/19 08:40:24;;;;;;;16.38;5.20;;;17.90;92.20;;;;;;5049052;28;20084;-87
2021/07/19 08:42:50;;;;;;;17.77;5.30;;;17.90;92.00;;;;;;5040985;28;20063;-87
2021/07/19 08:45:16;;;;;;;16.20;5.20;;;17.90;92.20;;;;;;5049967;28;20037;-85
2021/07/19 08:47:50;;;;;;;13.85;5.22;;;17.90;92.20;;;;;;5050313;28;20040;-87
2021/07/19 08:50:18;;;;;;;10.57;5.05;;;17.90;92.20;;;;;;5050622;28;20059;-86
2021/07/19 08:52:54;;;;;;;11.65;5.22;;;17.90;92.10;;;;;;5034433;28;20500;-86
2021/07/19 08:55:21;;;;;;;15.68;5.53;;;17.80;91.90;;;;;;5023644;28;20037;-85
2021/07/19 08:57:49;;;;;;;14.27;5.10;;;17.80;92.10;;;;;;5046756;28;20116;-86
2021/07/19 09:00:20;;;;;;;13.43;5.25;;;17.80;92.30;;;;;;5049518;28;20033;-86
2021/07/19 09:02:45;;;;;;;14.73;5.15;;;17.70;92.00;;;;;;5017637;28;20446;-86
2021/07/19 09:05:12;;;;;;;13.63;5.63;;;17.80;92.10;;;;;;5049610;28;20033;-86
2021/07/19 09:07:38;;;;;;;12.05;5.80;;;17.80;92.20;;;;;;5066098;28;20380;-87
2021/07/19 09:10:05;;;;;;;10.80;5.38;;;17.90;92.20;;;;;;5049547;28;20111;-85
2021/07/19 09:12:33;;;;;;;13.57;5.47;;;17.90;91.80;;;;;;5049476;28;20423;-89
2021/07/19 09:15:01;;;;;;;10.45;4.95;;;17.90;91.70;;;;;;5049646;28;20040;-87
2021/07/19 09:17:29;;;;;;;11.88;5.10;;;17.90;91.30;;;;;;5024184;28;20054;-86
2021/07/19 09:19:56;;;;;;;16.88;5.75;;;17.80;91.40;;;;;;5057308;28;20036;-87
2021/07/19 09:22:24;;;;;;;11.52;4.80;;;17.80;91.80;;;;;;5034858;28;20055;-89
2021/07/19 09:24:50;;;;;;;15.68;5.53;;;17.80;92.00;;;;;;5051051;28;20041;-87
2021/07/19 09:27:21;;;;;;;10.80;4.82;;;17.90;91.90;;;;;;5046469;28;20475;-86
2021/07/19 09:29:48;;;;;;;13.23;4.57;;;17.90;91.80;;;;;;5054114;28;20484;-87
2021/07/19 09:32:14;;;;;;;11.05;4.60;;;18.00;91.80;;;;;;5031893;28;20037;-87
2021/07/19 09:34:41;;;;;;;9.50;4.35;;;18.00;91.20;;;;;;5049006;28;20068;-87
2021/07/19 09:37:14;;;;;;;7.97;4.07;;;18.10;91.00;;;;;;5049373;28;20044;-86
2021/07/19 09:39:44;;;;;;;10.00;4.28;;;18.10;91.00;;;;;;5033893;28;20037;-86
2021/07/19 09:42:35;;;;;;;13.98;4.43;;;18.20;90.70;;;;;;5049755;28;20039;-88
2021/07/19 09:45:01;;;;;;;12.63;4.18;;;18.40;90.40;;;;;;5041552;28;20120;-87
2021/07/19 09:47:41;;;;;;;14.32;4.88;;;18.40;89.70;;;;;;5049326;28;20581;-89
2021/07/19 09:50:16;;;;;;;9.95;4.65;;;18.50;89.40;;;;;;5049030;28;20044;-88
2021/07/19 09:52:44;;;;;;;10.68;4.38;;;18.60;88.90;;;;;;5059401;28;20044;-85
2021/07/19 09:55:26;;;;;;;10.32;4.38;;;18.70;89.20;;;;;;5036413;28;20424;-87
2021/07/19 09:57:56;;;;;;;12.57;4.70;;;18.70;89.10;;;;;;5034704;28;20044;-89
2021/07/19 10:00:24;;;;;;;12.18;4.45;;;18.80;88.30;;;;;;5046283;28;20035;-85
2021/07/19 10:02:53;;;;;;;13.23;4.72;;;18.80;87.70;;;;;;5031248;28;20029;-86
2021/07/19 10:05:31;;;;;;;13.82;5.38;;;18.80;87.30;;;;;;5016558;28;20055;-88
2021/07/19 10:08:01;;;;;;;9.40;4.18;;;18.80;88.60;;;;;;5064763;28;20037;-87
2021/07/19 10:10:42;;;;;;;11.63;5.18;;;18.90;88.60;;;;;;5029583;28;20053;-88
2021/07/19 10:13:09;;;;;;;9.90;4.13;;;18.90;88.10;;;;;;5056015;28;20033;-87
2021/07/19 10:15:38;;;;;;;11.82;4.18;;;19.00;87.60;;;;;;5071123;28;20029;-85
2021/07/19 10:18:11;;;;;;;12.82;4.45;;;19.00;87.10;;;;;;5060463;28;20132;-86
2021/07/19 10:20:37;;;;;;;;;;;19.00;87.80;;;;;;5032124;28;20092;-87
2021/07/19 10:23:05;;;;;;;9.70;4.70;;;18.90;86.80;;;;;;5049026;28;20008;-87
2021/07/19 10:25:37;;;;;;;9.65;4.30;;;18.80;87.00;;;;;;5031938;28;20069;-88
2021/07/19 10:28:04;;;;;;;11.20;4.50;;;18.70;87.00;;;;;;5048302;28;20100;-86
2021/07/19 10:30:32;;;;;;;12.10;4.95;;;18.70;86.20;;;;;;5035697;28;20696;-86
2021/07/19 10:32:59;;;;;;;12.50;5.10;;;18.70;86.30;;;;;;5033764;28;20098;-89
2021/07/19 10:35:29;;;;;;;7.80;4.32;;;18.70;86.50;;;;;;5047753;28;20099;-88
2021/07/19 10:38:12;;;;;;;8.63;3.85;;;18.70;85.50;;;;;;5059133;28;20032;-86
2021/07/19 10:40:39;;;;;;;9.13;4.35;;;18.70;85.50;;;;;;5063548;28;20040;-88
2021/07/19 10:43:15;;;;;;;11.00;4.82;;;18.80;85.00;;;;;;5029635;28;20205;-87
2021/07/19 10:45:53;;;;;;;7.80;4.38;;;18.80;84.00;;;;;;5063012;28;20519;-87
2021/07/19 10:48:27;;;;;;;12.85;5.15;;;18.90;85.40;;;;;;5045350;28;20037;-86
2021/07/19 10:50:57;;;;;;;9.27;4.82;;;19.00;85.70;;;;;;5064211;28;20037;-89
2021/07/19 10:53:27;;;;;;;13.05;4.88;;;19.10;84.20;;;;;;5044471;28;20143;-88
2021/07/19 10:56:02;;;;;;;10.63;4.40;;;19.10;83.60;;;;;;5030315;28;20049;-87
2021/07/19 10:58:48;;;;;;;9.73;4.30;;;19.20;83.40;;;;;;5047206;28;20491;-88
2021/07/19 11:01:29;;;;;;;9.93;4.20;;;19.20;79.50;;;;;;5026627;28;20036;-88
2021/07/19 11:03:58;;;;;;;9.55;4.25;;;19.10;81.50;;;;;;5063707;28;20037;-87
2021/07/19 11:06:36;;;;;;;9.10;3.90;;;19.10;81.90;;;;;;5064288;28;20108;-88
2021/07/19 11:09:08;;;;;;;9.88;4.55;;;19.20;82.00;;;;;;5030716;28;20041;-89
2021/07/19 11:11:40;;;;;;;9.13;4.28;;;19.30;82.00;;;;;;5028006;28;20116;-88
2021/07/19 11:14:19;;;;;;;10.25;4.75;;;19.30;80.70;;;;;;5034811;28;20029;-88
2021/07/19 11:16:53;;;;;;;10.68;4.80;;;19.40;80.60;;;;;;5028062;28;20419;-89
2021/07/19 11:19:31;;;;;;;7.95;4.05;;;19.40;79.50;;;;;;5045192;28;20063;-87
2021/07/19 11:22:24;;;;;;;9.38;3.58;;;19.40;77.40;;;;;;5053140;28;20055;-87
2021/07/19 11:24:53;;;;;;;10.00;4.07;;;19.40;77.30;;;;;;5034608;28;20046;-88
2021/07/19 11:27:38;;;;;;;10.55;4.10;;;19.40;77.70;;;;;;5062465;28;20087;-87
2021/07/19 11:30:18;;;;;;;10.75;4.28;;;19.40;78.20;;;;;;5062496;28;20044;-88
2021/07/19 11:32:45;;;;;;;7.82;3.40;;;19.40;78.00;;;;;;5038322;28;20063;-88
2021/07/19 11:35:15;;;;;;;13.02;3.88;;;19.40;77.80;;;;;;5010514;28;20095;-88
2021/07/19 11:38:11;;;;;;;9.98;3.72;;;19.40;78.30;;;;;;5032244;28;20029;-91
2021/07/19 11:40:38;;;;;;;8.10;3.90;;;19.40;79.10;;;;;;5043589;28;20052;-87
2021/07/19 11:43:14;;;;;;;10.88;3.97;;;19.40;78.50;;;;;;5034116;28;20497;-87
2021/07/19 11:45:49;;;;;;;7.68;3.70;;;19.40;79.50;;;;;;5044853;28;20032;-89
2021/07/19 11:48:22;;;;;;;9.45;3.85;;;19.40;80.00;;;;;;5058473;28;20041;-87
2021/07/19 11:50:49;;;;;;;8.57;3.42;;;19.40;79.90;;;;;;5038063;28;20057;-87
2021/07/19 11:53:21;;;;;;;8.98;3.40;;;19.40;79.90;;;;;;5046266;28;20503;-88
2021/07/19 11:55:47;;;;;;;10.23;4.00;;;19.50;80.10;;;;;;5038550;28;20053;-87
2021/07/19 11:58:14;;;;;;;12.93;3.97;;;19.50;80.20;;;;;;5030973;28;20480;-88
2021/07/19 12:00:44;;;;;;;11.15;4.03;;;19.50;80.00;;;;;;5031578;28;20033;-89
2021/07/19 12:03:14;;;;;;;8.43;3.70;;;19.50;79.10;;;;;;5043308;28;20030;-88
2021/07/19 12:05:51;;;;;;;9.15;3.90;;;19.60;78.70;;;;;;5047996;28;20488;-87
2021/07/19 12:08:28;;;;;;;8.75;4.30;;;19.50;78.10;;;;;;5018482;28;20132;-88
2021/07/19 12:11:13;;;;;;;7.75;4.28;;;19.50;78.50;;;;;;5049342;28;20124;-89
2021/07/19 12:13:42;;;;;;;8.25;3.70;;;19.50;78.40;;;;;;5038280;28;20045;-87
2021/07/19 12:16:10;;;;;;;12.82;4.20;;;19.50;78.10;;;;;;5067242;28;20044;-87
2021/07/19 12:18:41;;;;;;;12.07;4.78;;;19.40;79.10;;;;;;5051544;28;20045;-87
2021/07/19 12:21:17;;;;;;;9.48;4.78;;;19.40;80.30;;;;;;5050965;28;20044;-88
2021/07/19 12:23:42;;;;;;;11.43;4.68;;;19.40;79.60;;;;;;5050614;28;20033;-87
2021/07/19 12:26:11;;;;;;;12.13;5.60;;;19.40;79.20;;;;;;5050749;28;20103;-87
2021/07/19 12:28:39;;;;;;;10.00;5.05;;;19.50;78.80;;;;;;5066820;28;20045;-87
2021/07/19 12:31:16;;;;;;;10.23;4.95;;;19.60;78.90;;;;;;5032210;28;20036;-87
2021/07/19 12:33:47;;;;;;;8.88;5.30;;;19.70;78.00;;;;;;5066455;28;20104;-88
2021/07/19 12:36:20;;;;;;;12.80;5.00;;;19.70;76.80;;;;;;5038886;28;20025;-88
2021/07/19 12:38:48;;;;;;;8.63;5.05;;;19.80;75.70;;;;;;5086396;28;20040;-89
2021/07/19 12:41:16;;;;;;;12.23;5.75;;;19.80;75.00;;;;;;5053525;28;20052;-87
2021/07/19 12:43:45;;;;;;;12.18;7.03;;;19.70;74.70;;;;;;5047184;28;20416;-90
2021/07/19 12:46:13;;;;;;;14.40;7.75;;;19.60;73.60;;;;;;5032550;28;20061;-89
2021/07/19 12:48:44;;;;;;;10.27;7.15;;;19.60;73.30;;;;;;5043587;28;20045;-87
2021/07/19 12:51:12;;;;;;;;;;;19.60;72.50;;;;;;5051243;28;20037;-88